createdAt,value
2018-04-17T13:47:06.305Z,32.97
2018-04-17T13:49:34.548Z,20.20
2018-04-17T13:52:02.792Z,29.47
2018-04-17T13:54:31.023Z,31.07
2018-04-17T13:56:59.260Z,39.87
2018-04-17T13:59:28.247Z,16.03
2018-04-17T14:01:57.287Z,17.17
2018-04-17T14:04:25.511Z,18.63
2018-04-17T14:06:53.749Z,12.00
2018-04-17T14:09:21.984Z,18.20
2018-04-17T14:11:50.212Z,11.13
2018-04-17T14:14:18.430Z,11.27
2018-04-17T14:16:46.655Z,18.57
2018-04-17T14:19:14.884Z,16.60
2018-04-17T14:21:43.116Z,15.67
2018-04-17T14:24:11.434Z,28.03
2018-04-17T14:26:39.693Z,6.50
2018-04-17T14:29:07.997Z,11.83
2018-04-17T14:31:36.264Z,14.73
2018-04-17T14:34:04.483Z,9.27
2018-04-17T14:36:32.747Z,8.33
2018-04-17T14:39:00.968Z,11.50
2018-04-17T14:41:30.155Z,11.43
2018-04-17T14:43:58.364Z,9.43
2018-04-17T14:46:26.659Z,7.00
2018-04-17T14:48:54.894Z,6.67
2018-04-17T14:51:23.888Z,10.20
2018-04-17T14:53:52.961Z,8.27
2018-04-17T14:56:21.132Z,7.23
2018-04-17T14:58:49.478Z,8.27
2018-04-17T15:01:17.706Z,6.33
2018-04-17T15:03:45.937Z,7.87
2018-04-17T15:06:14.156Z,7.37
2018-04-17T15:08:43.144Z,11.63
2018-04-17T15:11:12.233Z,8.77
2018-04-17T15:13:41.363Z,5.82
2018-04-17T15:16:09.597Z,10.45
2018-04-17T15:18:37.824Z,8.68
2018-04-17T15:21:06.028Z,7.32
2018-04-17T15:23:34.349Z,9.07
2018-04-17T15:26:02.506Z,7.90
2018-04-17T15:28:31.499Z,6.95
2018-04-17T15:31:00.485Z,7.53
2018-04-17T15:33:28.720Z,8.10
2018-04-17T15:35:56.936Z,11.73
2018-04-17T15:38:25.931Z,7.37
2018-04-17T15:40:54.920Z,11.80
2018-04-17T15:43:23.212Z,9.80
2018-04-17T15:45:52.204Z,9.40
2018-04-17T15:48:21.233Z,10.23
2018-04-17T15:50:49.478Z,5.27
2018-04-17T15:53:17.691Z,9.20
2018-04-17T15:55:45.887Z,8.60
2018-04-17T15:58:14.109Z,7.93
2018-04-17T16:00:42.343Z,7.07
2018-04-17T16:03:10.889Z,6.03
2018-04-17T16:05:39.796Z,5.93
2018-04-17T16:08:08.061Z,6.40
2018-04-17T16:10:36.276Z,9.80
2018-04-17T16:13:04.570Z,7.00
2018-04-17T16:15:32.764Z,7.60
2018-04-17T16:18:01.009Z,8.13
2018-04-17T16:20:30.049Z,5.93
2018-04-17T16:22:58.302Z,6.30
2018-04-17T16:25:27.294Z,5.97
2018-04-17T16:27:55.533Z,6.13
2018-04-17T16:30:23.745Z,12.50
2018-04-17T16:32:52.049Z,6.60
2018-04-17T16:35:20.267Z,7.07
2018-04-17T16:37:48.475Z,8.83
2018-04-17T16:40:16.719Z,6.57
2018-04-17T16:42:44.928Z,8.17
2018-04-17T16:45:13.148Z,9.70
2018-04-17T16:47:41.375Z,6.30
2018-04-17T16:50:09.810Z,8.00
2018-04-17T16:52:38.023Z,50.50
2018-04-17T16:55:06.295Z,15.23
2018-04-17T16:57:34.514Z,34.83
2018-04-17T17:00:03.044Z,38.73
2018-04-17T17:02:31.399Z,19.70
2018-04-17T17:04:59.623Z,50.23
2018-04-17T17:07:27.845Z,86.77
2018-04-17T17:09:56.104Z,119.90
2018-04-17T17:12:24.439Z,85.57
2018-04-17T17:14:52.753Z,88.80
2018-04-17T17:17:20.976Z,82.83
2018-04-17T17:19:49.221Z,76.30
2018-04-17T17:22:17.442Z,56.70
2018-04-17T17:24:45.700Z,93.07
2018-04-17T17:27:13.954Z,105.20
2018-04-17T17:29:42.229Z,52.53
2018-04-17T17:32:10.489Z,40.17
2018-04-17T17:34:38.702Z,58.57
2018-04-17T17:37:07.296Z,75.30
2018-04-17T17:39:35.520Z,27.00
2018-04-17T17:42:03.817Z,25.57
2018-04-17T17:44:32.123Z,51.40
2018-04-17T17:47:01.102Z,51.10
2018-04-17T17:49:30.112Z,24.07
2018-04-17T17:51:58.364Z,36.80
2018-04-17T17:54:27.364Z,50.60
2018-04-17T17:56:55.576Z,56.33
2018-04-17T17:59:23.841Z,72.23
2018-04-17T18:01:52.077Z,119.47
2018-04-17T18:04:21.085Z,145.20
2018-04-17T18:06:49.335Z,134.40
2018-04-17T18:09:18.382Z,140.03
2018-04-17T18:11:46.672Z,116.10
2018-04-17T18:14:14.943Z,128.73
2018-04-17T18:16:46.237Z,155.97
2018-04-17T18:19:14.514Z,100.07
2018-04-17T18:21:42.894Z,109.70
2018-04-17T18:24:11.880Z,124.13
2018-04-17T18:26:41.159Z,162.90
2018-04-17T18:29:09.392Z,130.57
2018-04-17T18:31:37.613Z,86.93
2018-04-17T18:34:05.850Z,84.50
2018-04-17T18:36:34.131Z,67.90
2018-04-17T18:39:02.387Z,45.23
2018-04-17T18:41:30.631Z,52.67
2018-04-17T18:43:59.643Z,33.47
2018-04-17T18:46:27.953Z,23.57
2018-04-17T18:48:56.149Z,24.97
2018-04-17T18:51:24.412Z,26.90
2018-04-17T18:53:52.658Z,22.43
2018-04-17T18:56:20.910Z,125.03
2018-04-17T18:58:49.876Z,96.60
2018-04-17T19:01:18.108Z,208.07
2018-04-17T19:03:46.392Z,221.67
2018-04-17T19:06:14.703Z,96.77
2018-04-17T19:08:42.948Z,94.40
2018-04-17T19:11:11.260Z,97.23
2018-04-17T19:13:39.739Z,99.23
2018-04-17T19:16:07.985Z,82.77
2018-04-17T19:18:36.219Z,31.73
2018-04-17T19:21:04.496Z,34.10
2018-04-17T19:23:32.883Z,27.70
2018-04-17T19:26:01.133Z,25.10
2018-04-17T19:28:30.117Z,20.33
2018-04-17T19:30:59.119Z,10.00
2018-04-17T19:33:28.117Z,19.53
2018-04-17T19:35:56.426Z,13.97
2018-04-17T19:38:24.656Z,18.40
2018-04-17T19:40:53.684Z,19.33
2018-04-17T19:43:21.947Z,11.57
2018-04-17T19:45:50.209Z,10.63
2018-04-17T19:48:19.350Z,11.63
2018-04-17T19:50:47.579Z,13.27
2018-04-17T19:53:16.635Z,14.53
2018-04-17T19:55:45.045Z,16.00
2018-04-17T19:58:14.130Z,11.50
2018-04-17T20:00:42.370Z,11.60
2018-04-17T20:03:10.822Z,12.23
2018-04-17T20:05:39.089Z,10.73
2018-04-17T20:08:07.354Z,10.33
2018-04-17T20:10:35.613Z,9.53
2018-04-17T20:13:03.841Z,13.20
2018-04-17T20:15:32.141Z,14.80
2018-04-17T20:18:00.360Z,29.77
2018-04-17T20:20:28.728Z,63.03
2018-04-17T20:22:56.940Z,49.17
2018-04-17T20:25:25.327Z,68.73
2018-04-17T20:27:53.570Z,54.37
2018-04-17T20:30:21.798Z,62.77
2018-04-17T20:32:50.042Z,29.67
2018-04-17T20:35:18.284Z,35.33
2018-04-17T20:37:47.287Z,29.63
2018-04-17T20:40:15.599Z,25.77
2018-04-17T20:42:43.875Z,15.97
2018-04-17T20:45:12.104Z,17.43
2018-04-17T20:47:41.100Z,14.53
2018-04-17T20:50:10.221Z,13.30
2018-04-17T20:52:38.492Z,11.57
2018-04-17T20:55:06.855Z,12.60
2018-04-17T20:57:35.099Z,10.20
2018-04-17T21:00:03.720Z,10.27
2018-04-17T21:02:32.047Z,10.47
2018-04-17T21:05:00.294Z,13.87
2018-04-17T21:07:28.531Z,10.53
2018-04-17T21:09:57.882Z,9.03
2018-04-17T21:12:26.134Z,9.50
2018-04-17T21:14:55.107Z,8.53
2018-04-17T21:17:23.331Z,15.37
2018-04-17T21:19:51.566Z,20.17
2018-04-17T21:22:19.811Z,18.57
2018-04-17T21:24:48.824Z,16.27
2018-04-17T21:27:17.058Z,15.27
2018-04-17T21:29:45.283Z,13.57
2018-04-17T21:32:13.537Z,21.00
2018-04-17T21:34:42.531Z,25.20
2018-04-17T21:37:11.568Z,24.97
2018-04-17T21:39:39.812Z,19.33
2018-04-17T21:42:08.127Z,14.87
2018-04-17T21:44:36.460Z,13.10
2018-04-17T21:47:04.674Z,11.00
2018-04-17T21:49:32.925Z,11.27
2018-04-17T21:52:01.208Z,8.27
2018-04-17T21:54:29.494Z,13.07
2018-04-17T21:56:57.697Z,6.63
2018-04-17T21:59:25.928Z,20.77
2018-04-17T22:01:54.229Z,19.20
2018-04-17T22:04:22.470Z,13.67
2018-04-17T22:06:50.732Z,17.87
2018-04-17T22:09:20.056Z,10.80
2018-04-17T22:11:48.312Z,11.17
2018-04-17T22:14:16.809Z,15.80
2018-04-17T22:16:45.088Z,15.50
2018-04-17T22:19:13.678Z,15.23
2018-04-17T22:21:41.928Z,19.00
2018-04-17T22:24:10.632Z,10.37
2018-04-17T22:26:38.864Z,12.43
2018-04-17T22:29:07.089Z,6.73
2018-04-17T22:31:35.328Z,9.67
2018-04-17T22:51:20.820Z,7.20
2018-04-17T22:53:49.829Z,7.57
2018-04-17T22:56:18.043Z,9.10
2018-04-17T22:58:46.267Z,9.50
2018-04-17T23:01:15.286Z,9.10
2018-04-17T23:03:43.540Z,10.90
2018-04-17T23:06:11.832Z,11.17
2018-04-17T23:08:40.060Z,6.57
2018-04-17T23:11:08.281Z,13.50
2018-04-17T23:13:36.511Z,8.97
2018-04-17T23:16:04.724Z,11.27
2018-04-17T23:18:32.960Z,7.20
2018-04-17T23:21:01.926Z,9.30
2018-04-17T23:23:30.148Z,12.60
2018-04-17T23:25:58.439Z,13.80
2018-04-17T23:28:26.824Z,13.60
2018-04-17T23:30:55.057Z,8.37
2018-04-17T23:33:23.287Z,7.87
2018-04-17T23:35:52.394Z,10.03
2018-04-17T23:38:20.676Z,10.10
2018-04-17T23:40:48.928Z,10.70
2018-04-17T23:43:17.180Z,9.53
2018-04-17T23:45:45.464Z,11.13
2018-04-17T23:48:13.740Z,11.87
2018-04-17T23:50:41.949Z,10.17
2018-04-17T23:53:10.163Z,8.40
